Voss, Texas
Current Conditions -  °F | °C
As of 11:15 AM on Thursday 27 Nov 2014 (Local Time) from KCOM Reporting Station
Clear Clear  
Wind Chill: 52°   Ceiling: Unl
Heat Index: 52°   Visibility: 10mi
Dew Point: 33°   Wind: 3mph
Humidity: 50%   Direction: 170°S
Pressure: 30.52"   Gusts: NA
Location:  31.62°N, 99.56°W
Report Text: KCOM 271715Z AUTO 17003KT 10SM CLR 11/01 A3052 RMK AO2 T01090007
Loading
Personal Weather Stations






























Interactive Weather Map New forecast layout! Learn more

10-Day Weather Forecast

Advertisements
Track Severe Weather on mobile